Time;durP1;ratioP1;P1;durP2;ratioP2;P2;SDS_P1;SDS_P2;PMS_P1;PMS_P2;Temp;Humidity;BMP_temperature;BMP_pressure;BME280_temperature;BME280_humidity;BME280_pressure;Samples;Min_cycle;Max_cycle;Signal;HPM_P1;HPM_P2
2021/01/31 04:13:49;;;;;;;2.60;2.20;;;-7.10;95.80;;;;;;5031011;28;20053;-75
2021/01/31 04:16:15;;;;;;;3.83;2.20;;;-7.10;95.30;;;;;;5032393;28;20128;-75
2021/01/31 04:18:40;;;;;;;2.22;1.95;;;-7.00;95.30;;;;;;5051539;28;20557;-74
2021/01/31 04:21:06;;;;;;;2.45;2.00;;;-7.00;94.80;;;;;;5040101;28;20021;-75
2021/01/31 04:23:32;;;;;;;4.88;2.05;;;-7.00;94.20;;;;;;5030719;28;20022;-79
2021/01/31 04:25:57;;;;;;;2.20;1.83;;;-7.00;93.50;;;;;;5041591;28;20070;-79
2021/01/31 04:28:24;;;;;;;2.88;2.20;;;-7.10;93.70;;;;;;5037601;28;20030;-72
2021/01/31 04:30:56;;;;;;;2.45;2.00;;;-7.10;92.80;;;;;;5043699;28;20030;-75
2021/01/31 04:33:23;;;;;;;2.22;2.00;;;-7.10;92.70;;;;;;5046046;28;20100;-74
2021/01/31 04:35:50;;;;;;;2.85;2.28;;;-7.10;92.20;;;;;;5031758;28;20495;-78
2021/01/31 04:38:16;;;;;;;1.80;1.70;;;-7.20;91.00;;;;;;5032168;28;20138;-79
2021/01/31 04:40:41;;;;;;;5.93;2.00;;;-7.20;90.40;;;;;;5045292;28;20117;-79
2021/01/31 04:43:17;;;;;;;2.50;1.90;;;-7.30;89.90;;;;;;5041656;28;20052;-78
2021/01/31 04:45:43;;;;;;;2.33;1.90;;;-7.40;88.70;;;;;;5033810;28;20025;-78
2021/01/31 04:48:21;;;;;;;1.83;1.67;;;-7.50;87.50;;;;;;5031422;28;20087;-78
2021/01/31 04:51:15;;;;;;;2.22;2.00;;;-7.50;88.10;;;;;;5045313;28;20025;-78
2021/01/31 04:53:54;;;;;;;1.70;1.60;;;-7.60;87.80;;;;;;5044221;28;20039;-78
2021/01/31 04:56:41;;;;;;;1.88;1.67;;;-7.70;86.20;;;;;;5031697;28;20024;-77
2021/01/31 04:59:28;;;;;;;2.58;2.00;;;-7.70;86.40;;;;;;5045206;28;20055;-76
2021/01/31 05:02:03;;;;;;;1.90;1.70;;;-7.80;85.30;;;;;;5042406;28;20025;-77
2021/01/31 05:04:32;;;;;;;2.30;1.80;;;-7.90;85.00;;;;;;5037207;28;20044;-77
2021/01/31 05:07:03;;;;;;;1.70;1.60;;;-7.90;85.40;;;;;;5041187;28;20496;-76
2021/01/31 05:09:29;;;;;;;2.53;1.90;;;-7.90;85.20;;;;;;5032837;28;20037;-75
2021/01/31 05:12:04;;;;;;;2.45;1.77;;;-8.00;84.10;;;;;;5041969;28;20028;-74
2021/01/31 05:14:46;;;;;;;2.00;1.80;;;-8.00;83.90;;;;;;5044935;28;20396;-75
2021/01/31 05:17:16;;;;;;;2.20;2.00;;;-8.10;84.50;;;;;;5041854;28;20491;-75
2021/01/31 05:19:42;;;;;;;2.22;1.90;;;-8.20;84.60;;;;;;5036785;28;20075;-75
2021/01/31 05:22:14;;;;;;;2.08;1.77;;;-8.30;84.10;;;;;;5041928;28;20088;-75
2021/01/31 05:24:40;;;;;;;3.60;1.95;;;-8.40;84.50;;;;;;5030825;28;20022;-77
2021/01/31 05:27:07;;;;;;;1.92;1.83;;;-8.40;84.60;;;;;;5031077;28;20076;-74
2021/01/31 05:29:41;;;;;;;1.75;1.65;;;-8.50;84.70;;;;;;5045021;28;20052;-76
2021/01/31 05:32:18;;;;;;;2.13;1.80;;;-8.50;84.50;;;;;;5038887;28;20025;-78
2021/01/31 05:34:51;;;;;;;2.33;1.85;;;-8.60;84.10;;;;;;5038206;28;20079;-76
2021/01/31 05:37:28;;;;;;;1.90;1.80;;;-8.60;84.10;;;;;;5036712;28;20029;-74
2021/01/31 05:40:06;;;;;;;2.25;2.05;;;-8.60;84.90;;;;;;5040131;28;20030;-73
2021/01/31 05:42:40;;;;;;;2.72;2.00;;;-8.30;99.90;;;;;;5039519;28;20078;-73
2021/01/31 05:45:08;;;;;;;1.80;1.60;;;-7.60;99.90;;;;;;5044360;28;20026;-75
2021/01/31 05:47:38;;;;;;;3.17;2.40;;;-7.90;91.20;;;;;;5051777;28;20047;-76
2021/01/31 05:50:38;;;;;;;3.15;2.10;;;-8.20;87.70;;;;;;5043669;28;20037;-73
2021/01/31 05:53:30;;;;;;;1.85;1.75;;;-8.50;85.00;;;;;;5047793;28;20104;-77
2021/01/31 05:56:24;;;;;;;2.33;2.10;;;-8.70;85.00;;;;;;5047295;28;20120;-73
2021/01/31 05:59:11;;;;;;;2.30;2.10;;;-8.80;84.50;;;;;;5041529;28;20369;-82
2021/01/31 06:02:00;;;;;;;3.30;1.55;;;-8.90;84.90;;;;;;5047002;28;20025;-83
2021/01/31 06:04:27;;;;;;;2.25;2.05;;;-8.90;84.90;;;;;;5040212;28;20033;-82
2021/01/31 06:07:07;;;;;;;2.38;2.00;;;-8.90;84.20;;;;;;5042434;28;20020;-82
2021/01/31 06:09:42;;;;;;;2.50;2.05;;;-8.90;84.40;;;;;;5045644;28;20028;-82
2021/01/31 06:12:23;;;;;;;2.00;1.90;;;-8.90;84.60;;;;;;5048724;28;20094;-83
2021/01/31 06:15:00;;;;;;;2.55;1.90;;;-8.90;84.20;;;;;;5047140;28;20041;-83
2021/01/31 06:17:29;;;;;;;1.60;1.50;;;-9.00;83.30;;;;;;5046019;28;20029;-74
2021/01/31 06:20:17;;;;;;;2.10;2.00;;;-9.00;83.40;;;;;;5040713;28;20037;-77
2021/01/31 06:22:51;;;;;;;2.38;1.95;;;-9.10;82.50;;;;;;5040055;28;20049;-78
2021/01/31 06:25:26;;;;;;;1.75;1.65;;;-9.20;83.70;;;;;;5052096;28;20032;-77
2021/01/31 06:28:20;;;;;;;2.60;2.03;;;-9.30;85.90;;;;;;5048173;28;20516;-73
2021/01/31 06:31:22;;;;;;;2.10;1.90;;;-9.30;85.60;;;;;;5051746;28;20540;-74
2021/01/31 06:33:49;;;;;;;1.65;1.55;;;-9.20;84.40;;;;;;5046212;28;20532;-75
2021/01/31 06:36:47;;;;;;;10.38;4.55;;;-8.90;99.90;;;;;;5044056;28;20511;-76
2021/01/31 06:39:40;;;;;;;6.05;3.03;;;-8.70;93.90;;;;;;5010835;28;20083;-75
2021/01/31 06:42:35;;;;;;;9.20;3.25;;;-8.90;88.70;;;;;;5046290;28;20029;-74
2021/01/31 06:45:04;;;;;;;3.22;2.30;;;-9.00;86.60;;;;;;5043694;28;20108;-75
2021/01/31 06:47:57;;;;;;;5.97;3.40;;;-9.10;85.60;;;;;;5038853;28;20013;-75
2021/01/31 06:50:47;;;;;;;5.20;2.30;;;-9.10;85.90;;;;;;5039678;28;20037;-75
2021/01/31 06:53:21;;;;;;;1.93;1.80;;;-9.20;86.60;;;;;;5033622;28;20048;-75
2021/01/31 06:56:09;;;;;;;1.92;1.80;;;-9.20;87.70;;;;;;5047014;28;20499;-75
2021/01/31 06:58:56;;;;;;;1.70;1.60;;;-9.20;89.30;;;;;;5044754;28;20025;-75
2021/01/31 07:01:50;;;;;;;2.72;2.00;;;-9.20;90.50;;;;;;5033100;28;20473;-75
2021/01/31 07:04:31;;;;;;;1.90;1.77;;;-9.20;91.20;;;;;;5033305;28;20037;-75
2021/01/31 07:07:26;;;;;;;1.90;1.80;;;-9.10;92.00;;;;;;5043137;28;20449;-79
2021/01/31 07:10:27;;;;;;;3.95;2.20;;;-7.40;99.90;;;;;;5046743;28;20037;-76
2021/01/31 07:13:13;;;;;;;2.40;2.20;;;-7.40;99.90;;;;;;5027740;28;20029;-77
2021/01/31 07:16:10;;;;;;;3.40;2.10;;;-7.80;99.90;;;;;;5044516;28;20049;-74
2021/01/31 07:18:43;;;;;;;2.20;1.90;;;-7.70;99.90;;;;;;5045828;28;20061;-76
2021/01/31 07:21:23;;;;;;;2.45;2.20;;;-7.70;99.90;;;;;;5048844;28;20017;-73
2021/01/31 07:23:52;;;;;;;3.28;1.98;;;-8.00;97.70;;;;;;5047542;28;20025;-74
2021/01/31 07:27:00;;;;;;;4.50;2.42;;;-8.20;97.00;;;;;;5048365;28;20045;-72
2021/01/31 07:29:43;;;;;;;2.22;2.03;;;-8.30;96.20;;;;;;5035354;28;20080;-73
2021/01/31 07:32:18;;;;;;;2.08;1.88;;;-8.40;96.60;;;;;;5035384;28;20110;-73
2021/01/31 07:35:04;;;;;;;2.58;2.20;;;-8.40;96.90;;;;;;5043860;28;20028;-74
2021/01/31 07:37:30;;;;;;;2.88;2.42;;;-8.50;97.50;;;;;;5050065;28;20021;-76
2021/01/31 07:40:06;;;;;;;3.22;2.10;;;-8.40;97.60;;;;;;5036004;28;20500;-76
2021/01/31 07:42:34;;;;;;;2.08;1.77;;;-8.40;97.60;;;;;;5050965;28;20048;-71
2021/01/31 07:45:09;;;;;;;3.38;2.03;;;-8.40;97.50;;;;;;5050775;28;20511;-74
2021/01/31 07:47:35;;;;;;;3.03;2.20;;;-8.30;97.10;;;;;;5050630;28;20122;-78
2021/01/31 07:50:04;;;;;;;3.08;2.47;;;-8.30;96.90;;;;;;5048327;28;20109;-78
2021/01/31 07:52:44;;;;;;;3.63;2.42;;;-8.30;97.00;;;;;;5048874;28;20028;-78
2021/01/31 07:55:30;;;;;;;;;;;-8.20;97.00;;;;;;5039954;28;20669;-78
2021/01/31 07:58:20;;;;;;;3.08;2.10;;;-8.20;97.40;;;;;;5039835;28;19913;-78
2021/01/31 08:00:48;;;;;;;2.67;2.30;;;-8.20;97.00;;;;;;5047865;28;20075;-77
2021/01/31 08:03:30;;;;;;;3.03;2.53;;;-8.20;97.20;;;;;;5045910;28;20022;-78
2021/01/31 08:06:01;;;;;;;2.47;2.10;;;-8.10;97.30;;;;;;5036175;28;20037;-81
2021/01/31 08:08:38;;;;;;;3.80;2.40;;;-8.00;97.20;;;;;;5045765;28;20401;-82
2021/01/31 08:11:09;;;;;;;2.83;2.20;;;-8.00;97.00;;;;;;5041763;28;20029;-82
2021/01/31 08:13:37;;;;;;;;;;;-8.00;96.90;;;;;;5042546;28;20024;-78
2021/01/31 08:16:40;;;;;;;3.72;2.40;;;-8.00;97.50;;;;;;5032778;28;19919;-81
2021/01/31 08:19:09;;;;;;;3.13;2.50;;;-8.00;97.40;;;;;;5034479;28;20029;-82
2021/01/31 08:21:59;;;;;;;4.97;3.05;;;-7.90;97.30;;;;;;5045541;28;20017;-83
2021/01/31 08:25:02;;;;;;;7.82;4.93;;;-7.90;97.30;;;;;;5042812;28;20020;-81
2021/01/31 08:27:42;;;;;;;4.60;3.40;;;-7.90;97.40;;;;;;5034275;28;20109;-82
2021/01/31 08:30:27;;;;;;;12.18;5.18;;;-8.00;97.50;;;;;;5046505;28;20029;-81
2021/01/31 08:33:02;;;;;;;6.78;3.33;;;-8.00;98.20;;;;;;5043735;28;20128;-84
2021/01/31 08:35:59;;;;;;;3.88;2.38;;;-8.00;98.50;;;;;;5049269;28;20472;-76
2021/01/31 08:38:34;;;;;;;2.85;2.17;;;-7.90;99.00;;;;;;5035083;28;20064;-77
2021/01/31 08:41:03;;;;;;;3.80;2.35;;;-7.90;99.10;;;;;;5045479;28;20387;-76
2021/01/31 08:44:17;;;;;;;3.00;2.50;;;-7.90;99.00;;;;;;5042176;28;20024;-77
2021/01/31 08:47:02;;;;;;;9.70;2.70;;;-7.80;99.40;;;;;;5045682;28;20096;-75
2021/01/31 08:49:29;;;;;;;2.33;2.13;;;-7.80;99.40;;;;;;5046666;28;20535;-77
2021/01/31 08:52:04;;;;;;;6.75;2.50;;;-7.70;99.40;;;;;;5041963;28;20033;-76
2021/01/31 08:54:30;;;;;;;4.18;2.65;;;-7.70;99.20;;;;;;5050706;28;20019;-81
2021/01/31 08:57:05;;;;;;;4.82;2.85;;;-7.70;99.20;;;;;;5042440;28;20075;-81
2021/01/31 08:59:48;;;;;;;14.27;6.70;;;-7.60;99.00;;;;;;5048303;28;20040;-72
2021/01/31 09:02:13;;;;;;;7.03;2.83;;;-7.60;99.90;;;;;;5043334;28;20036;-71
2021/01/31 09:05:06;;;;;;;4.80;4.30;;;-5.70;99.90;;;;;;5039816;28;20017;-71
2021/01/31 09:07:39;;;;;;;8.50;7.63;;;-3.70;99.90;;;;;;5037077;28;20087;-72
2021/01/31 09:10:16;;;;;;;5.07;3.80;;;-2.30;99.90;;;;;;5048841;28;20087;-72
2021/01/31 09:12:42;;;;;;;2.85;2.55;;;-1.60;99.90;;;;;;5050738;28;20025;-72
2021/01/31 09:15:14;;;;;;;2.08;1.80;;;-1.10;99.90;;;;;;5043840;28;20074;-72
2021/01/31 09:17:41;;;;;;;2.88;2.03;;;-0.70;99.90;;;;;;5043877;28;20116;-75
2021/01/31 09:20:09;;;;;;;2.08;1.73;;;-0.50;99.90;;;;;;5051557;28;20101;-78
2021/01/31 09:22:39;;;;;;;2.28;1.88;;;-1.10;99.90;;;;;;5047938;28;20025;-77
2021/01/31 09:25:07;;;;;;;3.42;2.05;;;-2.20;95.30;;;;;;5033954;28;20040;-77
2021/01/31 09:27:33;;;;;;;3.08;2.55;;;-3.10;97.20;;;;;;5038007;28;20489;-77
2021/01/31 09:30:06;;;;;;;3.28;2.55;;;-3.70;99.90;;;;;;5048946;28;20045;-77
2021/01/31 09:32:42;;;;;;;4.97;3.20;;;-4.20;99.90;;;;;;5043094;28;20032;-75
2021/01/31 09:35:14;;;;;;;5.30;3.25;;;-4.40;99.90;;;;;;5052756;28;20029;-80
2021/01/31 09:37:39;;;;;;;4.03;2.97;;;-4.40;99.90;;;;;;5053889;28;20036;-75
2021/01/31 09:40:10;;;;;;;5.10;3.00;;;-4.70;99.90;;;;;;5049282;28;20024;-78
2021/01/31 09:42:40;;;;;;;3.40;2.67;;;-4.90;99.90;;;;;;5049084;28;20493;-75
2021/01/31 09:45:24;;;;;;;3.22;2.63;;;-5.20;99.90;;;;;;5042676;28;20045;-75
2021/01/31 09:47:50;;;;;;;4.63;2.33;;;-5.40;99.50;;;;;;5040734;28;20113;-76
2021/01/31 09:50:17;;;;;;;4.03;2.42;;;-5.60;99.90;;;;;;5053334;28;20370;-74
2021/01/31 09:52:44;;;;;;;4.65;2.70;;;-5.70;99.90;;;;;;5047785;28;20112;-73
2021/01/31 09:55:38;;;;;;;5.75;2.58;;;-5.80;99.90;;;;;;5037267;28;20034;-75
2021/01/31 09:58:12;;;;;;;5.45;2.65;;;-5.80;99.90;;;;;;5048260;28;20017;-74
2021/01/31 10:00:38;;;;;;;4.43;2.60;;;-5.80;99.70;;;;;;5048417;28;20717;-76
2021/01/31 10:03:06;;;;;;;6.72;2.63;;;-5.90;99.80;;;;;;5044270;28;20021;-72
2021/01/31 10:05:35;;;;;;;4.40;2.50;;;-5.90;99.50;;;;;;5045863;28;20025;-73
2021/01/31 10:08:07;;;;;;;4.82;2.60;;;-5.90;99.90;;;;;;5052177;28;20025;-72
2021/01/31 10:10:41;;;;;;;5.68;2.88;;;-5.80;99.90;;;;;;5046014;28;20033;-72
2021/01/31 10:13:20;;;;;;;3.35;2.58;;;-5.80;99.90;;;;;;5043963;28;20017;-72
2021/01/31 10:15:56;;;;;;;4.57;2.78;;;-5.80;99.70;;;;;;5044828;28;20045;-72
2021/01/31 10:18:30;;;;;;;5.95;2.65;;;-5.70;99.90;;;;;;5048251;28;20017;-72
2021/01/31 10:21:14;;;;;;;6.30;2.60;;;-5.70;99.80;;;;;;5045305;28;20083;-71
2021/01/31 10:23:40;;;;;;;3.60;2.40;;;-5.70;99.50;;;;;;5044141;28;20021;-72
2021/01/31 10:26:11;;;;;;;4.25;2.42;;;-5.70;99.20;;;;;;5064891;28;20029;-71
2021/01/31 10:28:43;;;;;;;4.70;2.67;;;-5.70;99.50;;;;;;5042040;28;20025;-71
2021/01/31 10:31:35;;;;;;;5.45;2.50;;;-5.70;98.50;;;;;;5051856;28;20053;-71
2021/01/31 10:34:04;;;;;;;4.43;2.90;;;-5.70;99.30;;;;;;5040547;28;20392;-71
2021/01/31 10:36:29;;;;;;;2.95;2.38;;;-5.70;98.70;;;;;;5040816;28;20083;-71
2021/01/31 10:39:08;;;;;;;4.50;2.72;;;-5.70;98.30;;;;;;5047421;28;20026;-71
2021/01/31 10:41:35;;;;;;;3.95;2.33;;;-5.70;98.40;;;;;;5041294;28;20041;-72
2021/01/31 10:44:07;;;;;;;3.92;2.60;;;-5.70;98.60;;;;;;5036594;28;20529;-73
2021/01/31 10:46:36;;;;;;;4.13;2.55;;;-5.60;99.10;;;;;;5045192;28;20025;-72
2021/01/31 10:49:02;;;;;;;3.40;2.70;;;-5.60;98.90;;;;;;5037457;28;20021;-71
2021/01/31 10:51:31;;;;;;;3.22;2.55;;;-5.60;98.90;;;;;;5042313;28;20057;-69
2021/01/31 10:53:57;;;;;;;3.42;2.38;;;-5.50;98.20;;;;;;5052404;28;20025;-70
2021/01/31 10:56:23;;;;;;;2.80;2.15;;;-5.50;97.90;;;;;;5036162;28;20028;-71
2021/01/31 10:58:49;;;;;;;2.05;1.88;;;-5.60;97.40;;;;;;5040225;28;20115;-71
2021/01/31 11:01:14;;;;;;;3.15;2.08;;;-5.60;97.50;;;;;;5037926;28;20638;-70
2021/01/31 11:03:40;;;;;;;2.55;2.03;;;-5.60;97.80;;;;;;5042118;28;20026;-72
2021/01/31 11:06:06;;;;;;;2.97;2.00;;;-5.60;97.90;;;;;;5046278;28;20025;-71
2021/01/31 11:08:32;;;;;;;3.03;2.25;;;-5.60;97.70;;;;;;5039597;28;20110;-71
2021/01/31 11:10:59;;;;;;;3.75;2.00;;;-5.60;97.60;;;;;;5046127;28;20037;-71
2021/01/31 11:13:25;;;;;;;4.05;2.40;;;-5.60;97.80;;;;;;5037729;28;20023;-71
2021/01/31 11:15:51;;;;;;;2.70;2.00;;;-5.60;97.70;;;;;;5042370;28;20111;-71
2021/01/31 11:18:17;;;;;;;4.80;2.50;;;-5.50;97.10;;;;;;5043592;28;20028;-71
2021/01/31 11:20:43;;;;;;;3.08;2.03;;;-5.50;97.30;;;;;;5043347;28;20029;-70
2021/01/31 11:23:09;;;;;;;5.32;2.40;;;-5.50;96.40;;;;;;5034447;28;20125;-71
2021/01/31 11:25:35;;;;;;;6.43;2.20;;;-5.50;96.20;;;;;;5042311;28;20029;-71
2021/01/31 11:28:01;;;;;;;3.83;1.98;;;-5.50;96.40;;;;;;5040540;28;20028;-71
2021/01/31 11:30:29;;;;;;;2.88;1.88;;;-5.60;96.20;;;;;;5046340;28;20030;-70
2021/01/31 11:32:55;;;;;;;2.25;1.90;;;-5.50;96.40;;;;;;5037306;28;20029;-70
2021/01/31 11:35:21;;;;;;;2.17;1.98;;;-5.50;96.70;;;;;;5042971;28;20029;-71
2021/01/31 11:37:47;;;;;;;2.63;1.92;;;-5.50;96.50;;;;;;5037387;28;20017;-71
2021/01/31 11:40:13;;;;;;;2.00;1.80;;;-5.50;96.40;;;;;;5037528;28;20026;-70
2021/01/31 11:42:39;;;;;;;3.30;2.42;;;-5.50;96.60;;;;;;5045459;28;20056;-70
2021/01/31 11:45:06;;;;;;;3.03;2.05;;;-5.60;97.00;;;;;;5041188;28;20125;-71
2021/01/31 11:47:34;;;;;;;2.08;1.80;;;-5.50;97.20;;;;;;5047076;28;20162;-71
2021/01/31 11:50:00;;;;;;;2.20;1.98;;;-5.50;97.40;;;;;;5042628;28;20044;-71
2021/01/31 11:52:26;;;;;;;2.72;2.13;;;-5.50;97.50;;;;;;5042911;28;20021;-71
2021/01/31 11:54:52;;;;;;;2.92;1.90;;;-5.50;97.70;;;;;;5040849;28;20041;-73
2021/01/31 11:57:18;;;;;;;2.35;2.03;;;-5.40;97.90;;;;;;5048863;28;20040;-73
2021/01/31 11:59:44;;;;;;;2.28;2.08;;;-5.40;98.00;;;;;;5051755;28;20481;-73
2021/01/31 12:02:09;;;;;;;4.05;2.08;;;-5.40;98.30;;;;;;5038942;28;20025;-74
2021/01/31 12:04:37;;;;;;;4.00;2.60;;;-5.30;98.20;;;;;;5050184;28;20036;-74
2021/01/31 12:07:07;;;;;;;7.78;4.32;;;-5.30;98.20;;;;;;5050393;28;20035;-73
2021/01/31 12:09:33;;;;;;;3.83;2.73;;;-5.20;98.30;;;;;;5049424;28;20594;-77
2021/01/31 12:11:59;;;;;;;3.45;2.35;;;-5.10;97.80;;;;;;5047565;28;20312;-73
2021/01/31 12:14:25;;;;;;;3.63;2.50;;;-5.20;98.10;;;;;;5042499;28;20088;-71
2021/01/31 12:16:52;;;;;;;5.53;2.80;;;-5.20;98.10;;;;;;5051645;28;20480;-70
2021/01/31 12:19:19;;;;;;;2.17;2.05;;;-5.10;98.70;;;;;;5047560;28;20013;-75
2021/01/31 12:21:45;;;;;;;2.78;1.83;;;-5.10;98.60;;;;;;5041378;28;20111;-73
2021/01/31 12:24:10;;;;;;;3.15;2.00;;;-4.40;99.90;;;;;;5047379;28;20451;-77
2021/01/31 12:26:36;;;;;;;3.20;1.90;;;-4.40;99.90;;;;;;5038571;28;20025;-72
2021/01/31 12:29:03;;;;;;;2.20;1.70;;;-4.40;99.90;;;;;;5041414;28;20424;-74
2021/01/31 12:31:29;;;;;;;3.28;2.55;;;-3.90;99.90;;;;;;5031457;28;20029;-74
2021/01/31 12:33:54;;;;;;;2.58;2.25;;;-4.00;99.90;;;;;;5035671;28;20033;-74
2021/01/31 12:36:20;;;;;;;6.25;2.53;;;-4.20;98.60;;;;;;5041411;28;20108;-74
2021/01/31 12:38:46;;;;;;;6.72;2.65;;;-4.40;97.60;;;;;;5044305;28;20051;-74
2021/01/31 12:41:12;;;;;;;3.47;2.20;;;-4.50;97.90;;;;;;5039891;28;20036;-74
2021/01/31 12:43:38;;;;;;;3.15;2.22;;;-4.60;97.30;;;;;;5036718;28;20478;-74
2021/01/31 12:46:04;;;;;;;7.32;4.53;;;-4.70;97.70;;;;;;5045130;28;20080;-74
2021/01/31 12:48:29;;;;;;;3.92;3.15;;;-4.80;97.70;;;;;;5043938;28;20021;-74
2021/01/31 12:50:56;;;;;;;3.42;2.25;;;-4.80;98.40;;;;;;5033340;28;20083;-74
2021/01/31 12:53:22;;;;;;;4.25;2.53;;;-4.40;99.90;;;;;;5042801;28;20021;-73
2021/01/31 12:55:48;;;;;;;2.72;2.03;;;-4.50;99.90;;;;;;5048849;28;20032;-75
2021/01/31 12:58:14;;;;;;;2.20;1.83;;;-4.60;97.90;;;;;;5038572;28;20086;-69
2021/01/31 13:00:39;;;;;;;2.95;2.00;;;-4.70;97.30;;;;;;5035686;28;20029;-72
2021/01/31 13:03:05;;;;;;;2.33;1.90;;;-4.90;97.60;;;;;;5044791;28;20029;-75
2021/01/31 13:05:31;;;;;;;2.10;1.90;;;-4.90;97.90;;;;;;5030978;28;20022;-74
2021/01/31 13:07:58;;;;;;;2.72;2.08;;;-5.00;97.80;;;;;;5030835;28;20033;-73
2021/01/31 13:10:24;;;;;;;2.85;2.03;;;-5.10;97.70;;;;;;5039873;28;20037;-74
2021/01/31 13:12:50;;;;;;;2.58;2.00;;;-5.10;98.00;;;;;;5041983;28;20052;-74
2021/01/31 13:15:17;;;;;;;4.63;2.20;;;-5.10;98.40;;;;;;5045884;28;20130;-73
2021/01/31 13:17:43;;;;;;;2.00;1.80;;;-5.10;98.20;;;;;;5044544;28;20025;-72
2021/01/31 13:20:09;;;;;;;3.67;2.10;;;-4.40;99.90;;;;;;5051076;28;20021;-72
2021/01/31 13:22:35;;;;;;;3.67;1.70;;;-4.20;99.90;;;;;;5046229;28;20052;-72
2021/01/31 13:25:01;;;;;;;3.15;2.08;;;-4.30;99.90;;;;;;5046027;28;20036;-71
2021/01/31 13:27:27;;;;;;;3.17;1.90;;;-4.40;98.90;;;;;;5047241;28;20559;-70
2021/01/31 13:29:53;;;;;;;4.45;1.98;;;-4.50;97.00;;;;;;5043522;28;20087;-71
2021/01/31 13:32:18;;;;;;;2.70;1.90;;;-4.60;96.70;;;;;;5041741;28;20028;-71
2021/01/31 13:34:44;;;;;;;3.58;1.95;;;-4.70;96.30;;;;;;5044241;28;20052;-71
2021/01/31 13:37:10;;;;;;;3.85;2.33;;;-4.70;96.30;;;;;;5047693;28;20022;-71
2021/01/31 13:39:36;;;;;;;3.08;2.38;;;-4.80;96.10;;;;;;5035017;28;20029;-71
2021/01/31 13:42:02;;;;;;;3.60;2.20;;;-4.80;95.70;;;;;;5031093;28;20034;-72
2021/01/31 13:44:28;;;;;;;4.90;3.03;;;-4.90;95.50;;;;;;5042996;28;20086;-71
2021/01/31 13:46:54;;;;;;;7.55;3.53;;;-4.90;95.30;;;;;;5043273;28;20060;-71
2021/01/31 13:49:20;;;;;;;4.70;2.42;;;-4.90;95.50;;;;;;5040455;28;20087;-72
2021/01/31 13:51:46;;;;;;;12.23;4.75;;;-5.00;95.40;;;;;;5043479;28;20021;-72
2021/01/31 13:54:12;;;;;;;5.13;2.92;;;-5.00;95.80;;;;;;5047688;28;20030;-72
2021/01/31 13:56:38;;;;;;;17.67;7.40;;;-5.10;95.50;;;;;;5043724;28;20021;-72
2021/01/31 13:59:03;;;;;;;18.55;8.25;;;-5.10;95.30;;;;;;5039771;28;20423;-71
2021/01/31 14:01:29;;;;;;;10.38;4.55;;;-5.10;95.20;;;;;;5051164;28;20017;-71
2021/01/31 14:03:55;;;;;;;3.35;2.30;;;-5.20;95.20;;;;;;5047267;28;20028;-71
2021/01/31 14:06:20;;;;;;;6.85;2.78;;;-5.20;95.30;;;;;;5039574;28;20385;-71
2021/01/31 14:08:46;;;;;;;4.60;3.00;;;-5.20;94.70;;;;;;5044563;28;20116;-72
2021/01/31 14:11:12;;;;;;;5.20;3.38;;;-5.20;94.40;;;;;;5045490;28;20029;-72
2021/01/31 14:13:37;;;;;;;4.47;3.13;;;-5.20;94.00;;;;;;5033638;28;20018;-71
2021/01/31 14:16:04;;;;;;;5.93;2.92;;;-5.30;93.70;;;;;;5033163;28;20055;-71
2021/01/31 14:18:29;;;;;;;3.28;2.50;;;-5.30;93.60;;;;;;5053162;28;20637;-71
2021/01/31 14:20:55;;;;;;;3.63;2.53;;;-5.40;94.00;;;;;;5051133;28;20033;-71
2021/01/31 14:23:23;;;;;;;2.53;2.10;;;-5.50;94.40;;;;;;5046086;28;20151;-70
2021/01/31 14:25:49;;;;;;;4.38;2.60;;;-5.60;95.20;;;;;;5045171;28;20048;-70
2021/01/31 14:28:14;;;;;;;4.30;2.40;;;-5.60;95.90;;;;;;5051235;28;20049;-70
2021/01/31 14:30:40;;;;;;;6.20;2.72;;;-5.70;95.60;;;;;;5053261;28;20036;-70
2021/01/31 14:33:06;;;;;;;3.78;2.28;;;-5.70;96.10;;;;;;5050815;28;20036;-71
2021/01/31 14:35:32;;;;;;;3.65;2.40;;;-5.80;96.10;;;;;;5050307;28;20021;-71
2021/01/31 14:37:59;;;;;;;3.55;2.50;;;-5.80;96.40;;;;;;5042577;28;20027;-70
2021/01/31 14:40:27;;;;;;;3.13;2.38;;;-5.90;96.50;;;;;;5046656;28;20481;-70
2021/01/31 14:42:53;;;;;;;3.55;2.33;;;-5.90;97.20;;;;;;5044583;28;20033;-71
2021/01/31 14:45:26;;;;;;;4.43;2.35;;;-5.90;97.30;;;;;;5049717;28;20021;-70
2021/01/31 14:47:52;;;;;;;4.45;2.50;;;-5.90;97.10;;;;;;5045151;28;20366;-71
2021/01/31 14:50:18;;;;;;;3.95;2.70;;;-5.90;96.60;;;;;;5041054;28;20043;-72
2021/01/31 14:52:44;;;;;;;4.07;2.60;;;-6.00;96.40;;;;;;5039371;28;20013;-72
2021/01/31 14:55:28;;;;;;;3.15;2.50;;;-6.00;96.30;;;;;;5052622;28;20076;-72
2021/01/31 14:57:54;;;;;;;5.07;2.83;;;-6.00;96.60;;;;;;5052279;28;20040;-72
2021/01/31 15:00:32;;;;;;;5.97;2.90;;;-6.10;96.40;;;;;;5052788;28;20492;-72
2021/01/31 15:02:58;;;;;;;7.40;3.40;;;-6.10;96.50;;;;;;5052352;28;20036;-72
2021/01/31 15:05:24;;;;;;;4.82;2.83;;;-6.20;96.70;;;;;;5052786;28;20021;-72
2021/01/31 15:07:50;;;;;;;4.57;2.72;;;-6.30;96.90;;;;;;5057543;28;20021;-71
2021/01/31 15:10:18;;;;;;;4.07;2.45;;;-6.30;97.00;;;;;;5052762;28;20040;-72
2021/01/31 15:12:45;;;;;;;3.55;2.30;;;-6.40;97.60;;;;;;5050766;28;20453;-70
2021/01/31 15:15:12;;;;;;;3.67;2.55;;;-6.40;98.10;;;;;;5040203;28;20049;-72
2021/01/31 15:17:39;;;;;;;4.68;2.42;;;-6.30;98.10;;;;;;5052542;28;20090;-71
2021/01/31 15:20:08;;;;;;;4.30;2.72;;;-6.40;97.70;;;;;;5052801;28;20044;-71
2021/01/31 15:22:34;;;;;;;5.00;2.80;;;-6.40;97.90;;;;;;5047543;28;20409;-71
2021/01/31 15:25:02;;;;;;;7.00;2.45;;;-6.40;98.00;;;;;;5051039;28;20036;-71
2021/01/31 15:27:27;;;;;;;5.70;2.50;;;-6.40;98.20;;;;;;5035534;28;20039;-71
2021/01/31 15:29:53;;;;;;;4.63;2.45;;;-6.40;98.40;;;;;;5032296;28;20037;-71
2021/01/31 15:32:19;;;;;;;4.95;2.05;;;-6.40;98.10;;;;;;5037289;28;20021;-71
2021/01/31 15:34:45;;;;;;;4.95;2.40;;;-6.50;98.40;;;;;;5052278;28;20424;-71
2021/01/31 15:37:11;;;;;;;2.42;2.10;;;-6.50;98.60;;;;;;5037928;28;20017;-71
2021/01/31 15:39:37;;;;;;;3.78;2.30;;;-6.50;98.20;;;;;;5046640;28;20405;-72
2021/01/31 15:42:03;;;;;;;4.05;2.47;;;-6.60;98.60;;;;;;5046208;28;20480;-72
2021/01/31 15:44:30;;;;;;;3.63;2.25;;;-6.60;98.70;;;;;;5039003;28;20144;-71
2021/01/31 15:46:57;;;;;;;2.42;2.22;;;-6.30;99.90;;;;;;5047281;28;20524;-71
2021/01/31 15:49:23;;;;;;;2.05;1.85;;;-6.30;99.90;;;;;;5051662;28;20119;-72
2021/01/31 15:51:49;;;;;;;3.30;2.28;;;-6.40;98.60;;;;;;5046592;28;20143;-72
2021/01/31 15:54:14;;;;;;;3.20;2.22;;;-6.50;98.20;;;;;;5046848;28;20407;-72
2021/01/31 15:56:40;;;;;;;2.72;2.20;;;-6.50;98.40;;;;;;5051681;28;20423;-72
2021/01/31 15:59:06;;;;;;;2.38;2.17;;;-6.60;97.90;;;;;;5047442;28;20025;-72
2021/01/31 16:01:36;;;;;;;3.42;2.35;;;-6.70;97.70;;;;;;5046625;28;20020;-72
2021/01/31 16:04:02;;;;;;;3.45;2.20;;;-6.70;98.10;;;;;;5060337;28;20020;-71
2021/01/31 16:06:27;;;;;;;4.38;3.28;;;-6.80;99.90;;;;;;5032220;28;20033;-75
2021/01/31 16:08:53;;;;;;;5.20;4.70;;;-6.30;99.90;;;;;;5032171;28;20095;-81
2021/01/31 16:11:19;;;;;;;4.35;3.50;;;-6.30;99.90;;;;;;5049799;28;20447;-80
2021/01/31 16:13:46;;;;;;;2.78;2.33;;;-6.30;98.30;;;;;;5046237;28;20488;-75
2021/01/31 16:16:12;;;;;;;3.92;2.33;;;-6.40;97.60;;;;;;5048509;28;20489;-79
2021/01/31 16:18:38;;;;;;;2.35;1.98;;;-6.50;96.70;;;;;;5034743;28;20064;-74
2021/01/31 16:21:04;;;;;;;4.50;2.22;;;-6.60;96.70;;;;;;5044568;28;20053;-72
2021/01/31 16:23:30;;;;;;;2.53;2.20;;;-6.60;97.60;;;;;;5048439;28;20033;-72
2021/01/31 16:25:56;;;;;;;2.55;2.30;;;-6.70;96.70;;;;;;5038226;28;20151;-73
2021/01/31 16:28:22;;;;;;;2.42;2.00;;;-6.80;96.90;;;;;;5050355;28;20055;-70
2021/01/31 16:30:48;;;;;;;2.53;2.17;;;-6.80;97.20;;;;;;5047885;28;20037;-70
2021/01/31 16:33:14;;;;;;;2.40;2.20;;;-6.90;97.20;;;;;;5048049;28;20370;-70
2021/01/31 16:35:40;;;;;;;3.00;2.40;;;-7.00;97.40;;;;;;5047046;28;20071;-71
2021/01/31 16:38:07;;;;;;;3.40;2.15;;;-7.00;97.70;;;;;;5040517;28;20432;-71
2021/01/31 16:40:35;;;;;;;4.32;2.13;;;-7.00;97.60;;;;;;5040156;28;20036;-70
2021/01/31 16:43:03;;;;;;;2.55;2.10;;;-7.00;97.50;;;;;;5042366;28;20457;-77
2021/01/31 16:45:31;;;;;;;3.47;2.47;;;-7.00;97.40;;;;;;5042288;28;20034;-76
2021/01/31 16:47:57;;;;;;;2.50;2.28;;;-7.00;96.70;;;;;;5048727;28;20021;-76
2021/01/31 16:50:24;;;;;;;3.20;2.30;;;-7.10;96.80;;;;;;5045195;28;20040;-76
2021/01/31 16:52:50;;;;;;;2.72;2.30;;;-7.10;96.90;;;;;;5041838;28;20028;-78
2021/01/31 16:55:17;;;;;;;2.40;2.20;;;-7.10;97.00;;;;;;5046428;28;20033;-76
2021/01/31 16:57:44;;;;;;;2.75;2.25;;;-7.10;96.90;;;;;;5037696;28;20026;-76
2021/01/31 17:00:13;;;;;;;2.67;2.10;;;-7.20;97.30;;;;;;5031258;28;20096;-73
2021/01/31 17:02:39;;;;;;;2.97;2.30;;;-7.20;97.60;;;;;;5033954;28;20545;-73
2021/01/31 17:05:05;;;;;;;3.10;2.40;;;-7.20;98.00;;;;;;5031266;28;20120;-74
2021/01/31 17:07:31;;;;;;;3.55;2.50;;;-7.20;98.20;;;;;;5045924;28;20033;-74
2021/01/31 17:09:57;;;;;;;3.33;2.35;;;-7.30;98.50;;;;;;5039784;28;20029;-73
2021/01/31 17:12:23;;;;;;;3.50;2.30;;;-7.20;98.70;;;;;;5040900;28;20021;-74
2021/01/31 17:14:48;;;;;;;3.10;2.33;;;-7.20;98.90;;;;;;5047781;28;20136;-74
2021/01/31 17:17:14;;;;;;;2.60;2.10;;;-7.30;98.80;;;;;;5042011;28;20021;-73
2021/01/31 17:19:40;;;;;;;2.72;2.40;;;-7.30;99.00;;;;;;5039896;28;20029;-74
2021/01/31 17:22:06;;;;;;;4.00;2.63;;;-7.30;99.40;;;;;;5044865;28;20033;-74